This is the latest recevied weather packets stored in our database for station/object TG9ADI-20. If no packets are shown the sender has not sent any weather packets the latest 10 day(s).
| Time | Temp. | Humidity | Pressure | Rain* | Wind** | Luminosity | Snow |
|---|---|---|---|---|---|---|---|
| 1778333312 | 18.33° C | 10% | - | 0 mm | - | - | - |
| 1778332712 | 18.33° C | 10% | - | 0 mm | - | - | - |
| 1778332111 | 18.33° C | 99% | 1013 hPa | 0 mm | - | - | - |
| 1778331511 | 18.89° C | 97% | 1013 hPa | 0 mm | - | - | - |
| 1778330910 | 18.89° C | 97% | 1013 hPa | 0 mm | - | - | - |
| 1778330309 | 18.89° C | 96% | 1013 hPa | 0 mm | - | - | - |
| 1778329709 | 18.89° C | 97% | 1013 hPa | 0 mm | - | - | - |
| 1778329108 | 16.67° C | 99% | 1013 hPa | 0 mm | - | - | - |
| 1778328508 | 17.22° C | 98% | 1013 hPa | 0 mm | - | - | - |
| 1778327907 | 17.22° C | 98% | 1013 hPa | 0 mm | - | - | - |
| 1778327306 | 18.89° C | 97% | 1013 hPa | 0 mm | - | - | - |
| 1778326706 | 16.67° C | 99% | 1015 hPa | 0 mm | - | - | - |
| 1778326105 | 17.22° C | 98% | 1012 hPa | 0 mm | - | - | - |
| 1778325504 | 17.22° C | 98% | 1012 hPa | 0 mm | - | - | - |
| 1778324904 | 18.89° C | 97% | 1013 hPa | 0 mm | - | - | - |
| 1778324303 | 16.67° C | 98% | 1014 hPa | 0 mm | - | - | - |
| 1778323703 | 17.22° C | 97% | 1014 hPa | 0 mm | - | - | - |
| 1778323102 | 17.78° C | 97% | 1014 hPa | 0 mm | - | - | - |
| 1778322502 | 19.44° C | 94% | 1011 hPa | 0 mm | - | - | - |
| 1778321901 | 19.44° C | 94% | 1011 hPa | 0 mm | - | - | - |
| 1778321301 | 16.67° C | 98% | 1011 hPa | 0 mm | - | - | - |
| 1778320700 | 17.22° C | 98% | 1011 hPa | 0 mm | - | - | - |
| 1778320100 | 17.78° C | 98% | 1011 hPa | 0 mm | - | - | - |
| 1778319499 | 18.89° C | 96% | 1011 hPa | 0 mm | - | - | - |
| 1778318899 | 18.89° C | 96% | 1011 hPa | 0 mm | - | - | - |
* Rain latest hour (hover to see other rain measurements)
** Current wind speed in m/s (hover to see current wind gust speed)